Time;durP1;ratioP1;P1;durP2;ratioP2;P2;SDS_P1;SDS_P2;PMS_P1;PMS_P2;Temp;Humidity;BMP_temperature;BMP_pressure;BME280_temperature;BME280_humidity;BME280_pressure;Samples;Min_cycle;Max_cycle;Signal;HPM_P1;HPM_P2
2022/08/21 00:01:48;;;;;;;9.00;8.30;;;;;;;18.73;90.56;100969.53;7396693;19;20014;-68
2022/08/21 00:04:20;;;;;;;9.10;8.30;;;;;;;18.69;90.62;100968.84;7395506;19;20014;-68
2022/08/21 00:06:48;;;;;;;9.48;8.32;;;;;;;18.68;91.02;100975.09;7394510;19;20027;-68
2022/08/21 00:09:17;;;;;;;9.63;8.27;;;;;;;18.65;91.00;100972.59;7394220;19;20486;-68
2022/08/21 00:11:46;;;;;;;9.05;8.15;;;;;;;18.63;91.12;100960.34;7394705;19;20010;-68
2022/08/21 00:14:16;;;;;;;8.35;7.47;;;;;;;18.61;91.30;100963.06;7394752;19;20470;-68
2022/08/21 00:16:44;;;;;;;9.70;8.35;;;;;;;18.62;91.24;100961.28;7396295;19;20022;-69
2022/08/21 00:19:13;;;;;;;9.23;8.05;;;;;;;18.61;91.24;100971.03;7396011;19;20026;-68
2022/08/21 00:21:50;;;;;;;9.27;8.45;;;;;;;18.61;91.37;100971.03;7396072;19;20010;-68
2022/08/21 00:24:19;;;;;;;8.90;8.10;;;;;;;18.60;90.96;100965.78;7395260;19;20025;-69
2022/08/21 00:26:48;;;;;;;9.02;8.15;;;;;;;18.59;91.51;100972.91;7394090;19;20035;-68
2022/08/21 00:29:17;;;;;;;9.77;8.88;;;;;;;18.56;91.06;100968.63;7395755;19;20023;-68
2022/08/21 00:31:46;;;;;;;9.52;8.45;;;;;;;18.56;91.32;100978.38;7395762;19;20043;-69
2022/08/21 00:34:16;;;;;;;9.55;8.70;;;;;;;18.54;91.39;100964.31;7394626;19;20014;-69
2022/08/21 00:36:47;;;;;;;9.80;8.88;;;;;;;18.49;91.63;100966.38;7395770;19;20031;-68
2022/08/21 00:39:16;;;;;;;9.88;8.88;;;;;;;18.44;91.23;100977.22;7396043;19;20015;-68
2022/08/21 00:41:44;;;;;;;9.10;8.30;;;;;;;18.39;91.40;100974.78;7395251;19;20014;-69
2022/08/21 00:44:15;;;;;;;9.25;8.30;;;;;;;18.36;91.29;100977.59;7394583;19;20018;-69
2022/08/21 00:46:45;;;;;;;8.50;7.70;;;;;;;18.32;91.60;100976.03;7395053;19;20024;-69
2022/08/21 00:49:15;;;;;;;9.20;8.15;;;;;;;18.34;91.48;100982.13;7394989;19;20031;-68
2022/08/21 00:51:51;;;;;;;10.48;8.73;;;;;;;18.34;91.42;100983.94;7395074;19;20018;-69
2022/08/21 00:54:23;;;;;;;7.93;7.22;;;;;;;18.32;91.50;100985.81;7394233;19;20074;-69
2022/08/21 00:56:56;;;;;;;7.63;6.93;;;;;;;18.28;91.27;100978.94;7395230;19;20366;-69
2022/08/21 00:59:26;;;;;;;7.75;7.05;;;;;;;18.24;90.78;100981.72;7394870;19;20022;-68
2022/08/21 01:01:55;;;;;;;7.18;6.53;;;;;;;18.21;90.43;100979.25;7400111;19;20024;-69
2022/08/21 01:04:25;;;;;;;9.88;6.85;;;;;;;18.18;90.50;100978.53;7400767;19;20043;-68
2022/08/21 01:06:57;;;;;;;7.90;6.90;;;;;;;18.17;90.21;100988.31;7402392;19;20031;-68
2022/08/21 01:09:25;;;;;;;8.13;6.85;;;;;;;18.14;90.39;100987.59;7399224;19;20485;-68
2022/08/21 01:11:54;;;;;;;7.22;6.53;;;;;;;18.13;90.01;100985.88;7399851;19;20024;-68
2022/08/21 01:14:23;;;;;;;9.07;6.15;;;;;;;18.12;90.10;100986.78;7399566;19;20035;-68
2022/08/21 01:16:55;;;;;;;11.25;7.18;;;;;;;18.10;89.92;100992.19;7399498;19;20022;-68
2022/08/21 01:19:25;;;;;;;10.85;6.78;;;;;;;18.09;89.63;100994.94;7399330;19;20018;-67
2022/08/21 01:21:56;;;;;;;7.15;6.45;;;;;;;18.07;89.65;101003.81;7398793;19;20376;-68
2022/08/21 01:24:25;;;;;;;7.40;6.53;;;;;;;18.05;89.47;100989.75;7400325;19;20078;-68
2022/08/21 01:26:54;;;;;;;16.85;6.97;;;;;;;18.04;89.25;100989.84;7400916;19;20031;-68
2022/08/21 01:29:33;;;;;;;10.32;6.90;;;;;;;18.03;89.15;100990.75;7401286;19;20018;-69
2022/08/21 01:32:02;;;;;;;7.18;6.47;;;;;;;18.02;89.46;100989.91;7401439;19;20017;-68
2022/08/21 01:34:31;;;;;;;7.55;6.10;;;;;;;18.00;88.97;100990.94;7398593;19;20042;-69
2022/08/21 01:37:02;;;;;;;6.55;5.28;;;;;;;17.96;88.73;100987.56;7401580;19;20015;-68
2022/08/21 01:39:31;;;;;;;7.57;5.32;;;;;;;17.94;88.91;100992.06;7401925;19;20078;-68
2022/08/21 01:41:59;;;;;;;6.28;5.68;;;;;;;17.92;88.51;100988.63;7401256;19;20035;-68
2022/08/21 01:44:29;;;;;;;7.97;6.03;;;;;;;17.91;88.10;100984.25;7399195;19;20027;-68
2022/08/21 01:46:57;;;;;;;10.60;5.65;;;;;;;17.91;87.77;100989.53;7398126;19;20011;-68
2022/08/21 01:49:26;;;;;;;6.47;5.20;;;;;;;17.88;87.63;100987.03;7401222;19;20028;-68
2022/08/21 01:51:55;;;;;;;6.35;5.18;;;;;;;17.85;87.24;100990.69;7401113;19;20014;-68
2022/08/21 01:54:26;;;;;;;9.75;5.63;;;;;;;17.82;87.10;100988.19;7398845;19;20477;-68
2022/08/21 01:56:56;;;;;;;6.55;5.40;;;;;;;17.79;87.34;100998.09;7400728;19;20031;-68
2022/08/21 01:59:26;;;;;;;5.32;4.60;;;;;;;17.74;86.95;100996.53;7397896;19;20018;-68
2022/08/21 02:01:55;;;;;;;5.95;5.13;;;;;;;17.70;86.92;100994.94;7400807;19;20376;-69
2022/08/21 02:04:24;;;;;;;7.38;5.13;;;;;;;17.68;87.18;101001.25;7399072;19;20014;-67
2022/08/21 02:06:53;;;;;;;7.38;5.50;;;;;;;17.66;87.04;100992.53;7400752;19;20018;-67
2022/08/21 02:09:22;;;;;;;5.97;5.13;;;;;;;17.65;87.06;100983.69;7397977;19;20019;-67
2022/08/21 02:11:54;;;;;;;7.50;5.10;;;;;;;17.63;86.57;100985.56;7396943;19;20478;-67
2022/08/21 02:14:23;;;;;;;8.23;4.38;;;;;;;17.60;86.58;100988.34;7395879;19;20018;-67
2022/08/21 02:16:51;;;;;;;10.57;4.70;;;;;;;17.59;86.47;100989.28;7400269;19;20028;-67
2022/08/21 02:19:20;;;;;;;7.93;4.90;;;;;;;17.57;86.53;100988.50;7400209;19;20026;-67
2022/08/21 02:21:48;;;;;;;5.63;4.50;;;;;;;17.56;86.62;100989.44;7399705;19;20015;-67
2022/08/21 02:24:17;;;;;;;7.35;4.93;;;;;;;17.54;86.39;100984.22;7398569;19;20023;-67
2022/08/21 02:26:45;;;;;;;5.97;5.03;;;;;;;17.54;86.13;100983.34;7399994;19;20035;-68
2022/08/21 02:29:16;;;;;;;6.40;4.45;;;;;;;17.52;86.19;100979.91;7397441;19;20022;-69
2022/08/21 02:31:45;;;;;;;8.15;5.10;;;;;;;17.50;85.94;100976.47;7399983;19;20010;-69
2022/08/21 02:34:13;;;;;;;5.07;4.22;;;;;;;17.48;86.25;100983.63;7396720;19;20027;-69
2022/08/21 02:36:42;;;;;;;5.85;4.38;;;;;;;17.46;85.86;100980.19;7399257;19;20489;-69
2022/08/21 02:39:10;;;;;;;7.85;4.35;;;;;;;17.45;86.28;100978.47;7397123;19;20035;-69
2022/08/21 02:41:45;;;;;;;7.70;4.60;;;;;;;17.44;86.21;100974.97;7398971;19;20018;-69
2022/08/21 02:44:16;;;;;;;8.43;4.63;;;;;;;17.41;85.91;100970.66;7397573;19;20022;-69
2022/08/21 02:46:45;;;;;;;7.82;4.68;;;;;;;17.41;86.03;100977.75;7399652;19;20024;-69
2022/08/21 02:49:13;;;;;;;7.60;4.88;;;;;;;17.39;86.32;100985.78;7398839;19;20031;-69
2022/08/21 02:51:42;;;;;;;6.53;4.30;;;;;;;17.37;86.04;100974.38;7399155;19;20014;-69
2022/08/21 02:54:10;;;;;;;5.78;4.45;;;;;;;17.37;86.18;100973.53;7396890;19;20031;-69
2022/08/21 02:56:39;;;;;;;6.60;4.63;;;;;;;17.36;86.16;100977.09;7399024;19;20049;-69
2022/08/21 02:59:07;;;;;;;6.50;4.25;;;;;;;17.35;86.33;100984.22;7396582;19;20035;-69
2022/08/21 03:01:38;;;;;;;7.85;4.65;;;;;;;17.32;86.22;100987.00;7398448;19;20019;-69
2022/08/21 03:04:07;;;;;;;8.90;4.88;;;;;;;17.28;85.88;100981.91;7397740;19;20014;-69
2022/08/21 03:06:36;;;;;;;7.47;4.75;;;;;;;17.23;86.31;100984.78;7398310;19;20483;-69
2022/08/21 03:09:05;;;;;;;4.68;4.22;;;;;;;17.18;86.15;101003.53;7398491;19;20035;-69
2022/08/21 03:11:34;;;;;;;5.63;4.63;;;;;;;17.13;86.33;100994.94;7396402;19;20010;-69
2022/08/21 03:14:02;;;;;;;9.85;4.50;;;;;;;17.08;86.02;100983.69;7397152;19;20014;-69
2022/08/21 03:16:31;;;;;;;5.75;4.70;;;;;;;17.06;86.15;100982.88;7397882;19;20022;-69
2022/08/21 03:19:02;;;;;;;5.45;4.53;;;;;;;17.03;86.04;100981.22;7397772;19;20086;-69
2022/08/21 03:21:31;;;;;;;7.07;4.65;;;;;;;17.01;86.00;100976.91;7398526;19;20014;-69
2022/08/21 03:23:59;;;;;;;6.60;4.70;;;;;;;16.97;86.09;100992.09;7396983;19;20022;-69
2022/08/21 03:26:28;;;;;;;5.63;4.15;;;;;;;16.94;85.86;100989.59;7398757;19;20032;-69
2022/08/21 03:28:57;;;;;;;7.57;4.78;;;;;;;16.92;86.19;100986.13;7397469;19;20015;-69
2022/08/21 03:31:28;;;;;;;5.57;4.97;;;;;;;16.91;86.18;100984.44;7397375;19;20021;-69
2022/08/21 03:33:57;;;;;;;7.65;4.82;;;;;;;16.91;85.84;100987.09;7395234;19;20482;-69
2022/08/21 03:36:28;;;;;;;6.32;4.22;;;;;;;16.90;85.69;100985.34;7397014;19;20074;-69
2022/08/21 03:38:57;;;;;;;10.15;4.65;;;;;;;16.88;85.64;100984.53;7397545;19;20063;-69
2022/08/21 03:41:25;;;;;;;8.02;3.75;;;;;;;16.88;85.55;100987.19;7395019;19;20018;-69
2022/08/21 03:43:54;;;;;;;6.45;4.00;;;;;;;16.87;85.24;100998.69;7396152;19;20077;-69
2022/08/21 03:46:23;;;;;;;6.32;3.70;;;;;;;16.86;85.50;100995.22;7396947;19;20090;-69
2022/08/21 03:48:52;;;;;;;8.43;4.00;;;;;;;16.88;85.22;101000.44;7397114;19;20369;-69
2022/08/21 03:51:21;;;;;;;6.90;3.90;;;;;;;16.86;85.49;101005.81;7397164;19;20014;-69
2022/08/21 03:53:52;;;;;;;8.82;4.57;;;;;;;16.86;85.38;100995.22;7396193;19;20088;-69
2022/08/21 03:56:20;;;;;;;6.97;3.70;;;;;;;16.85;85.36;100993.47;7395908;19;20419;-69
2022/08/21 03:58:49;;;;;;;7.80;4.40;;;;;;;16.85;85.31;101000.59;7396888;19;20014;-69
2022/08/21 04:01:17;;;;;;;12.73;7.00;;;;;;;16.85;85.16;101000.59;7396415;19;20014;-69
2022/08/21 04:03:46;;;;;;;6.95;4.50;;;;;;;16.84;85.13;101004.16;7395595;19;20078;-69
2022/08/21 04:06:14;;;;;;;12.85;10.10;;;;;;;16.83;85.14;101013.88;7396248;19;20038;-69
2022/08/21 04:08:44;;;;;;;6.40;4.32;;;;;;;16.83;85.14;101007.72;7396492;19;20022;-69
2022/08/21 04:11:16;;;;;;;9.65;4.88;;;;;;;16.80;84.88;101002.56;7395324;19;20014;-69
2022/08/21 04:13:44;;;;;;;9.95;4.80;;;;;;;16.74;84.90;100998.38;7395283;19;20436;-69
2022/08/21 04:16:13;;;;;;;8.52;4.50;;;;;;;16.70;84.88;100996.81;7394216;19;20478;-69
2022/08/21 04:18:42;;;;;;;7.80;4.82;;;;;;;16.67;84.86;101002.22;7395554;19;20015;-69
2022/08/21 04:21:12;;;;;;;9.88;4.13;;;;;;;16.64;84.82;101003.22;7395216;19;20531;-68
2022/08/21 04:23:41;;;;;;;6.63;4.30;;;;;;;16.62;85.09;101002.44;7394391;19;20017;-68
2022/08/21 04:26:09;;;;;;;6.80;4.53;;;;;;;16.60;84.99;100996.34;7393994;19;20018;-68
2022/08/21 04:28:40;;;;;;;10.77;4.90;;;;;;;16.57;84.94;101004.44;7395518;19;20105;-68
2022/08/21 04:31:10;;;;;;;6.78;4.40;;;;;;;16.54;84.98;101013.38;7395437;19;20523;-68
2022/08/21 04:33:39;;;;;;;10.15;5.05;;;;;;;16.49;85.16;101014.47;7395060;19;20018;-69
2022/08/21 04:36:08;;;;;;;10.70;4.40;;;;;;;16.49;85.31;101017.13;7392713;19;20018;-69
2022/08/21 04:38:37;;;;;;;6.53;4.63;;;;;;;16.48;85.17;101021.56;7395390;19;20018;-69
2022/08/21 04:41:06;;;;;;;5.63;3.85;;;;;;;16.48;84.87;101025.97;7395433;19;20039;-69
2022/08/21 04:43:35;;;;;;;6.30;4.10;;;;;;;16.43;85.15;101027.03;7393433;19;20014;-69
2022/08/21 04:46:06;;;;;;;6.35;4.03;;;;;;;16.43;84.86;101027.03;7395420;19;20093;-69
2022/08/21 04:48:35;;;;;;;8.55;4.32;;;;;;;16.41;84.76;101025.38;7395070;19;20035;-69
2022/08/21 04:51:09;;;;;;;12.68;4.78;;;;;;;16.38;84.82;101030.81;7393609;19;20023;-69
2022/08/21 04:53:41;;;;;;;7.35;4.03;;;;;;;16.37;84.92;101031.75;7393834;19;20036;-69
2022/08/21 04:56:15;;;;;;;7.15;4.43;;;;;;;16.34;85.06;101030.09;7394263;19;20014;-69
2022/08/21 04:58:45;;;;;;;7.20;4.03;;;;;;;16.31;84.90;101024.91;7393875;19;20015;-69
2022/08/21 05:01:19;;;;;;;11.98;4.70;;;;;;;16.34;84.88;101037.16;7394671;19;20026;-69
2022/08/21 05:03:50;;;;;;;10.18;4.43;;;;;;;16.34;84.74;101035.38;7394508;19;20035;-69
2022/08/21 05:06:21;;;;;;;4.75;3.90;;;;;;;16.33;84.82;101033.66;7395254;19;20018;-69
2022/08/21 05:08:53;;;;;;;7.35;4.07;;;;;;;16.32;84.73;101036.38;7394655;19;20011;-69
2022/08/21 05:11:22;;;;;;;7.55;3.90;;;;;;;16.33;84.60;101040.72;7394090;19;20090;-69
2022/08/21 05:13:50;;;;;;;6.55;3.83;;;;;;;16.33;84.27;101043.38;7393497;19;20478;-69
2022/08/21 05:16:22;;;;;;;6.53;4.28;;;;;;;16.33;84.06;101038.94;7392981;19;20014;-68
2022/08/21 05:18:50;;;;;;;7.53;3.72;;;;;;;16.33;84.44;101046.00;7394156;19;20541;-68
2022/08/21 05:21:19;;;;;;;9.98;4.78;;;;;;;16.33;84.07;101041.59;7392337;19;20033;-68
2022/08/21 05:23:47;;;;;;;8.98;4.13;;;;;;;16.33;84.14;101044.25;7393505;19;20014;-69
2022/08/21 05:26:15;;;;;;;8.27;4.35;;;;;;;16.34;83.74;101048.63;7394274;19;20018;-68
2022/08/21 05:28:51;;;;;;;5.55;4.07;;;;;;;16.33;84.12;101041.59;7394281;19;20019;-68
2022/08/21 05:31:22;;;;;;;5.40;3.70;;;;;;;16.34;83.62;101045.97;7393900;19;20096;-69
2022/08/21 05:33:51;;;;;;;6.32;3.60;;;;;;;16.35;83.74;101042.41;7393511;19;20022;-69
2022/08/21 05:36:20;;;;;;;8.23;3.75;;;;;;;16.34;83.29;101051.28;7391957;19;20018;-69
2022/08/21 05:38:49;;;;;;;7.30;4.00;;;;;;;16.36;83.26;101046.75;7391423;19;20090;-68
2022/08/21 05:41:17;;;;;;;8.70;3.85;;;;;;;16.38;83.30;101059.94;7393276;19;20382;-69
2022/08/21 05:43:46;;;;;;;5.95;3.90;;;;;;;16.39;83.24;101051.06;7392511;19;20380;-69
2022/08/21 05:46:14;;;;;;;8.07;4.65;;;;;;;16.42;83.25;101054.44;7393850;19;20074;-69
2022/08/21 05:48:45;;;;;;;5.20;3.60;;;;;;;16.45;83.25;101054.34;7397742;19;20036;-69
2022/08/21 05:51:16;;;;;;;6.50;4.28;;;;;;;16.48;82.78;101055.13;7398125;19;20077;-69
2022/08/21 05:53:45;;;;;;;7.80;3.83;;;;;;;16.49;82.69;101057.72;7400512;19;20032;-69
2022/08/21 05:56:15;;;;;;;7.22;4.00;;;;;;;16.51;82.58;101057.66;7399267;19;20027;-69
2022/08/21 05:58:44;;;;;;;8.90;4.10;;;;;;;16.54;82.44;101055.75;7400982;19;20051;-69
2022/08/21 06:01:14;;;;;;;6.18;3.80;;;;;;;16.57;82.12;101052.94;7400996;19;20047;-70
2022/08/21 06:03:45;;;;;;;10.32;4.53;;;;;;;16.61;82.32;101053.69;7397647;19;20015;-70
2022/08/21 06:06:14;;;;;;;8.05;4.03;;;;;;;16.64;82.33;101050.91;7401090;19;20014;-69
2022/08/21 06:08:42;;;;;;;6.75;3.38;;;;;;;16.68;81.71;101052.50;7400515;19;20090;-69
2022/08/21 06:11:12;;;;;;;7.38;3.55;;;;;;;16.71;81.63;101052.38;7399516;19;20015;-69
2022/08/21 06:13:41;;;;;;;8.15;4.10;;;;;;;16.76;81.66;101053.03;7399967;19;20018;-70
2022/08/21 06:16:13;;;;;;;5.95;3.15;;;;;;;16.77;81.30;101052.09;7398560;19;20014;-69
2022/08/21 06:18:46;;;;;;;7.55;2.95;;;;;;;16.81;80.69;101059.91;7400427;19;20070;-69
2022/08/21 06:21:15;;;;;;;7.13;3.92;;;;;;;16.82;80.74;101053.69;7400599;19;20015;-69
2022/08/21 06:23:45;;;;;;;5.15;3.33;;;;;;;16.84;80.84;101068.59;7399102;19;20022;-69
2022/08/21 06:26:15;;;;;;;5.70;3.15;;;;;;;16.85;80.25;101072.13;7399541;19;20372;-70
2022/08/21 06:28:44;;;;;;;8.10;3.42;;;;;;;16.88;80.55;101069.34;7399900;19;20087;-69
2022/08/21 06:31:16;;;;;;;6.10;3.55;;;;;;;16.89;80.47;101060.47;7398820;19;20090;-70
2022/08/21 06:33:47;;;;;;;7.22;3.33;;;;;;;16.93;79.98;101067.38;7399659;19;20014;-69
2022/08/21 06:36:16;;;;;;;7.30;3.55;;;;;;;16.96;80.24;101056.66;7397871;19;20015;-69
2022/08/21 06:38:45;;;;;;;9.30;3.30;;;;;;;17.00;80.11;101055.59;7399283;19;20082;-69
2022/08/21 06:41:14;;;;;;;4.47;3.38;;;;;;;17.03;80.21;101052.78;7399271;19;20015;-69
2022/08/21 06:43:42;;;;;;;6.63;3.92;;;;;;;17.07;79.78;101057.03;7396721;19;20019;-69
2022/08/21 06:46:11;;;;;;;5.82;3.25;;;;;;;17.13;79.87;101055.06;7399126;19;20427;-69
2022/08/21 06:48:39;;;;;;;7.47;3.25;;;;;;;17.19;79.52;101049.47;7398963;19;20078;-69
2022/08/21 06:51:11;;;;;;;7.63;3.15;;;;;;;17.24;79.60;101058.09;7399232;19;20142;-70
2022/08/21 06:53:39;;;;;;;9.73;3.40;;;;;;;17.30;79.28;101055.16;7398659;19;20372;-69
2022/08/21 06:56:14;;;;;;;5.65;2.83;;;;;;;17.35;78.83;101066.44;7397465;19;20031;-70
2022/08/21 06:58:43;;;;;;;7.38;2.70;;;;;;;17.41;78.79;101057.31;7398165;19;20078;-69
2022/08/21 07:01:11;;;;;;;7.63;2.70;;;;;;;17.46;78.08;101065.91;7398198;19;20427;-69
2022/08/21 07:03:43;;;;;;;7.88;2.88;;;;;;;17.51;78.00;101060.41;7396394;19;20050;-69
2022/08/21 07:06:14;;;;;;;11.48;3.47;;;;;;;17.53;77.76;101055.91;7398340;19;20086;-70
2022/08/21 07:08:42;;;;;;;8.00;3.10;;;;;;;17.57;77.43;101057.47;7399891;19;20035;-71
2022/08/21 07:11:15;;;;;;;8.48;2.85;;;;;;;17.62;77.29;101054.63;7398569;19;20088;-71
2022/08/21 07:13:43;;;;;;;8.02;2.90;;;;;;;17.65;77.12;101049.16;7397946;19;20077;-71
2022/08/21 07:16:12;;;;;;;7.75;2.67;;;;;;;17.69;77.11;101056.03;7397468;19;20074;-71
2022/08/21 07:18:40;;;;;;;6.05;2.58;;;;;;;17.70;77.22;101045.34;7398281;19;20031;-71
2022/08/21 07:21:10;;;;;;;5.90;2.33;;;;;;;17.82;76.95;101056.31;7398183;19;20082;-71
2022/08/21 07:23:44;;;;;;;6.15;2.67;;;;;;;17.88;76.61;101051.59;7397354;19;20019;-71
2022/08/21 07:26:13;;;;;;;11.70;2.67;;;;;;;17.97;75.74;101057.41;7397771;19;20514;-71
2022/08/21 07:28:42;;;;;;;6.97;2.38;;;;;;;18.05;75.75;101053.47;7397337;19;20380;-71
2022/08/21 07:31:13;;;;;;;6.20;1.98;;;;;;;18.13;74.73;101052.25;7397717;19;20031;-71
2022/08/21 07:33:43;;;;;;;5.07;2.08;;;;;;;18.21;74.39;101052.72;7397231;19;20074;-71
2022/08/21 07:36:12;;;;;;;5.78;2.28;;;;;;;18.30;74.19;101051.41;7396811;19;20013;-71
2022/08/21 07:38:43;;;;;;;4.28;1.70;;;;;;;18.35;72.95;101049.38;7397143;19;20119;-70
2022/08/21 07:41:18;;;;;;;6.03;1.88;;;;;;;18.43;73.44;101046.38;7397703;19;20143;-70
2022/08/21 07:43:47;;;;;;;6.20;2.58;;;;;;;18.53;72.99;101042.31;7396169;19;20014;-71
2022/08/21 07:46:16;;;;;;;5.28;2.08;;;;;;;18.61;72.26;101040.09;7397231;19;20032;-71
2022/08/21 07:48:45;;;;;;;6.35;1.90;;;;;;;18.67;71.50;101042.44;7397183;19;20015;-71
2022/08/21 07:51:18;;;;;;;5.80;1.60;;;;;;;18.70;69.19;101049.41;7397257;19;20015;-71
2022/08/21 07:53:54;;;;;;;6.20;1.63;;;;;;;18.73;68.88;101042.16;7395959;19;20018;-70
2022/08/21 07:56:23;;;;;;;4.22;2.33;;;;;;;18.81;69.97;101044.41;7396105;19;20407;-71
2022/08/21 07:58:52;;;;;;;5.45;1.52;;;;;;;18.88;70.03;101034.34;7396929;19;20083;-71
2022/08/21 08:01:20;;;;;;;1.95;0.95;;;;;;;18.94;68.80;101036.69;7397333;19;20042;-70
2022/08/21 08:03:49;;;;;;;3.00;1.10;;;;;;;18.98;67.55;101032.94;7395605;19;20019;-71
2022/08/21 08:06:19;;;;;;;9.27;1.13;;;;;;;19.02;65.28;101028.31;7396096;19;20081;-71
2022/08/21 08:08:47;;;;;;;3.75;1.48;;;;;;;19.05;65.30;101030.81;7396496;19;20029;-71
2022/08/21 08:11:19;;;;;;;4.43;1.40;;;;;;;19.11;65.27;101027.81;7394525;19;20011;-71
2022/08/21 08:13:49;;;;;;;4.53;1.63;;;;;;;19.13;64.68;101025.97;7395191;19;20485;-71
2022/08/21 08:16:19;;;;;;;3.53;1.35;;;;;;;19.15;63.33;101031.19;7396101;19;20104;-71
2022/08/21 08:18:48;;;;;;;5.82;1.63;;;;;;;19.18;63.68;101036.31;7396185;19;20039;-72
2022/08/21 08:21:18;;;;;;;3.88;1.00;;;;;;;19.22;60.59;101043.19;7395867;19;20023;-71
2022/08/21 08:23:47;;;;;;;6.18;1.30;;;;;;;19.26;60.57;101046.56;7395792;19;20386;-70
2022/08/21 08:26:15;;;;;;;4.32;1.35;;;;;;;19.32;61.83;101051.56;7395988;19;20085;-71
2022/08/21 08:28:47;;;;;;;4.32;1.38;;;;;;;19.40;61.86;101051.13;7395160;19;20016;-71
2022/08/21 08:31:16;;;;;;;2.85;1.23;;;;;;;19.48;61.52;101052.44;7395146;19;20516;-71
2022/08/21 08:33:45;;;;;;;5.68;1.20;;;;;;;19.55;61.28;101052.97;7394443;19;20018;-70
2022/08/21 08:36:18;;;;;;;4.93;1.05;;;;;;;19.58;60.37;101058.13;7394804;19;20015;-72
2022/08/21 08:38:48;;;;;;;5.85;1.35;;;;;;;19.63;61.34;101045.41;7395763;19;20014;-71
2022/08/21 08:41:18;;;;;;;4.95;1.30;;;;;;;19.70;60.21;101046.81;7395236;19;20021;-72
2022/08/21 08:43:54;;;;;;;3.88;1.27;;;;;;;19.74;58.69;101049.28;7394622;19;20011;-72
2022/08/21 08:46:34;;;;;;;3.42;1.40;;;;;;;19.80;60.40;101043.63;7394465;19;20022;-71
2022/08/21 08:49:09;;;;;;;3.40;1.58;;;;;;;19.87;60.31;101042.38;7395565;19;20021;-72
2022/08/21 08:51:45;;;;;;;3.83;1.10;;;;;;;19.98;59.32;101047.97;7395467;19;20014;-71
2022/08/21 08:54:18;;;;;;;3.03;1.10;;;;;;;20.06;59.71;101041.34;7394352;19;20078;-71
2022/08/21 08:56:47;;;;;;;2.67;0.90;;;;;;;20.15;59.40;101040.81;7394036;19;20018;-71
2022/08/21 08:59:24;;;;;;;4.50;1.15;;;;;;;20.24;56.75;101039.41;7394940;19;20019;-72
2022/08/21 09:02:17;;;;;;;4.10;1.27;;;;;;;20.32;58.44;101038.03;7395822;19;20354;-71
2022/08/21 09:04:48;;;;;;;4.28;1.30;;;;;;;20.39;58.19;101027.88;7392957;19;20022;-71
2022/08/21 09:07:26;;;;;;;3.67;0.82;;;;;;;20.47;57.64;101032.75;7395441;19;20072;-72
2022/08/21 09:10:08;;;;;;;2.95;1.42;;;;;;;20.55;56.16;101034.94;7392597;19;20040;-71
2022/08/21 09:12:52;;;;;;;5.55;1.20;;;;;;;20.61;56.04;101042.59;7392522;19;20021;-71
2022/08/21 09:15:35;;;;;;;2.88;1.10;;;;;;;20.65;53.36;101047.66;7392475;19;20022;-72
2022/08/21 09:18:25;;;;;;;5.10;1.20;;;;;;;20.74;53.60;101045.41;7392200;19;20022;-72
2022/08/21 09:21:05;;;;;;;3.55;0.80;;;;;;;20.80;53.30;101053.91;7394105;19;20014;-72
2022/08/21 09:23:45;;;;;;;4.60;1.40;;;;;;;20.84;53.69;101057.25;7400291;19;20019;-72
2022/08/21 09:26:16;;;;;;;2.55;1.08;;;;;;;20.84;54.31;101049.25;7401127;19;20490;-70
2022/08/21 09:28:47;;;;;;;4.15;1.30;;;;;;;20.89;54.41;101048.97;7401493;19;20082;-71
2022/08/21 09:31:25;;;;;;;5.13;1.30;;;;;;;20.94;53.99;101049.53;7399092;19;20015;-71
2022/08/21 09:34:00;;;;;;;3.53;1.20;;;;;;;21.01;52.98;101048.22;7400528;19;20026;-71
2022/08/21 09:36:38;;;;;;;6.35;2.25;;;;;;;21.11;53.66;101038.69;7400619;19;20360;-71
2022/08/21 09:39:07;;;;;;;3.60;1.15;;;;;;;21.22;53.23;101043.38;7398335;19;20091;-71
2022/08/21 09:41:38;;;;;;;3.78;1.00;;;;;;;21.29;53.23;101039.41;7401075;19;20014;-71
2022/08/21 09:44:07;;;;;;;4.30;1.25;;;;;;;21.36;52.56;101033.66;7399343;19;20070;-71
2022/08/21 09:46:39;;;;;;;8.20;1.65;;;;;;;21.42;52.03;101034.13;7400805;19;20011;-72
2022/08/21 09:49:07;;;;;;;10.43;1.70;;;;;;;21.51;52.52;101035.38;7401611;19;20026;-72
2022/08/21 09:51:39;;;;;;;2.85;0.98;;;;;;;21.60;51.92;101036.63;7400605;19;20446;-71
2022/08/21 09:54:18;;;;;;;3.67;1.25;;;;;;;21.67;49.96;101026.41;7399818;19;20019;-72
2022/08/21 09:59:38;;;;;;;6.25;1.33;;;;;;;21.64;50.64;101020.28;7400773;19;20493;-72
2022/08/21 10:02:30;;;;;;;3.55;0.90;;;;;;;21.65;48.96;101029.19;7400769;19;20023;-72
2022/08/21 10:05:01;;;;;;;5.72;1.10;;;;;;;21.70;50.27;101024.41;7398188;19;20014;-72
2022/08/21 10:07:30;;;;;;;4.97;1.15;;;;;;;;;;7400691;19;20023;-74
2022/08/21 10:10:07;;;;;;;4.57;1.20;;;;;;;21.76;49.49;101020.47;7400729;19;20022;-72
2022/08/21 10:12:50;;;;;;;4.65;1.63;;;;;;;21.83;48.81;101018.28;7398576;19;20011;-72
2022/08/21 10:15:25;;;;;;;4.88;1.52;;;;;;;21.87;48.53;101019.78;7397793;19;20019;-72
2022/08/21 10:18:08;;;;;;;5.53;1.55;;;;;;;21.93;48.51;101022.06;7398160;19;20035;-72
2022/08/21 10:20:47;;;;;;;5.72;1.65;;;;;;;21.99;48.41;101013.66;7400482;19;20027;-72
2022/08/21 10:23:41;;;;;;;8.60;1.48;;;;;;;22.05;47.72;101020.38;7399658;19;20425;-71
2022/08/21 10:26:13;;;;;;;;;;;;;;;22.12;47.38;101022.53;7400348;19;20558;-71
2022/08/21 10:28:49;;;;;;;4.28;1.13;;;;;;;22.21;46.80;101031.75;7399487;19;19984;-71
2022/08/21 10:31:27;;;;;;;4.22;1.40;;;;;;;22.25;48.53;101027.94;7399709;19;20015;-71
2022/08/21 10:34:08;;;;;;;4.15;1.10;;;;;;;22.32;46.85;101035.53;7397224;19;20082;-71
2022/08/21 10:36:42;;;;;;;4.85;1.35;;;;;;;22.36;46.84;101029.06;7399372;19;20034;-71
2022/08/21 10:39:16;;;;;;;;;;;;;;;22.33;44.69;101030.13;7399519;19;20087;-71
2022/08/21 10:42:15;;;;;;;5.05;1.75;;;;;;;22.34;45.36;101033.63;7399597;19;19940;-71
2022/08/21 10:44:51;;;;;;;3.58;1.35;;;;;;;22.19;43.67;101036.38;7396726;19;20018;-72
2022/08/21 10:47:27;;;;;;;3.83;1.50;;;;;;;22.22;45.48;101028.13;7396931;19;20105;-71
2022/08/21 10:50:06;;;;;;;4.18;1.20;;;;;;;22.24;44.74;101030.72;7399380;19;20085;-72
2022/08/21 10:52:49;;;;;;;3.15;1.38;;;;;;;22.32;44.74;101032.88;7399576;19;20083;-72
2022/08/21 10:55:22;;;;;;;5.35;1.67;;;;;;;22.43;45.94;101030.34;7396919;19;20019;-72
2022/08/21 10:57:56;;;;;;;7.18;1.35;;;;;;;22.44;42.33;101024.94;7397849;19;20022;-71
2022/08/21 11:00:30;;;;;;;4.50;0.90;;;;;;;22.47;44.13;101023.00;7399348;19;20018;-72
2022/08/21 11:03:05;;;;;;;2.33;1.27;;;;;;;22.42;42.36;101015.31;7398935;19;20042;-72
2022/08/21 11:05:42;;;;;;;4.90;1.42;;;;;;;22.40;41.12;101027.91;7396328;19;20023;-71
2022/08/21 11:08:14;;;;;;;3.20;1.10;;;;;;;22.34;43.19;101020.25;7398828;19;20027;-72
2022/08/21 11:10:47;;;;;;;2.08;1.00;;;;;;;22.26;41.71;101029.63;7398938;19;20078;-72
2022/08/21 11:13:30;;;;;;;6.22;1.05;;;;;;;22.19;42.49;101028.34;7395682;19;20010;-72
2022/08/21 11:16:03;;;;;;;3.08;1.00;;;;;;;22.13;42.44;101032.28;7398481;19;20018;-72
2022/08/21 11:18:36;;;;;;;6.68;3.03;;;;;;;22.18;42.57;101031.09;7395985;19;20011;-72
2022/08/21 11:21:20;;;;;;;3.67;1.50;;;;;;;22.25;42.88;101019.06;7398705;19;20021;-72
2022/08/21 11:23:55;;;;;;;3.42;1.00;;;;;;;22.29;42.33;101021.44;7396804;19;20027;-71
2022/08/21 11:26:32;;;;;;;3.83;1.25;;;;;;;22.36;42.68;101019.19;7398035;19;20018;-71
2022/08/21 11:29:08;;;;;;;3.50;1.33;;;;;;;22.46;42.59;101014.13;7398363;19;20039;-71
2022/08/21 11:31:50;;;;;;;5.85;1.48;;;;;;;22.54;42.39;101014.44;7396979;19;20485;-71
2022/08/21 11:34:30;;;;;;;5.68;1.20;;;;;;;22.63;42.56;101006.78;7394521;19;20478;-71
2022/08/21 11:37:07;;;;;;;4.35;1.40;;;;;;;22.69;42.76;101009.03;7394980;19;20514;-71
2022/08/21 11:39:48;;;;;;;6.32;1.58;;;;;;;22.81;42.70;101002.84;7396546;19;20540;-71
2022/08/21 11:42:35;;;;;;;2.78;1.33;;;;;;;22.93;42.23;100996.59;7394869;19;20334;-71
2022/08/21 11:45:17;;;;;;;5.13;1.67;;;;;;;23.07;41.14;100995.63;7393094;19;20108;-71
2022/08/21 11:47:56;;;;;;;6.65;1.65;;;;;;;23.18;41.15;100996.75;7397314;19;20030;-70
2022/08/21 11:50:28;;;;;;;2.25;1.02;;;;;;;23.23;40.56;101000.81;7396898;19;20039;-71